KSSF/SSF METAR and TAF weather

Enter ICAO airport designator
Station Type Date Time Source
KSSF METAR 2023/01/30 10:53 UTC NOAA

KSSF 301053Z AUTO 04010KT 6SM -RA BR OVC006 07/06 A3007 RMK AO2 RAB08 SLP180 P0000 T00670061


Station Type Date Time Source
KSSF Decoded METAR 2023/01/30 10:53 UTC NOAA

SAN ANTONIO STINSON MUNI, TX, United States (KSSF) 29-20N 098-28W 176M
Jan 30, 2023 - 05:53 AM EST / 2023.01.30 1053 UTC
Wind: from the NE (040 degrees) at 12 MPH (10 KT):0
Visibility: 6 mile(s):0
Sky conditions: overcast
Weather: light rain; mist
Precipitation last hour: A trace
Temperature: 44.1 F (6.7 C)
Dew Point: 43.0 F (6.1 C)
Relative Humidity: 95%
Pressure (altimeter): 30.07 in. Hg (1018 hPa)
ob: KSSF 301053Z AUTO 04010KT 6SM -RA BR OVC006 07/06 A3007 RMK AO2 RAB08 SLP180 P0000 T00670061
cycle: 11

Station Type Date Time Source
KSSF TAF 2023/01/30 12:22 UTC NOAA

TAF KSSF 301120Z 3012/3112 02012KT 4SM -DZ OVC007
FM301600 02012KT P6SM -DZ VCSH OVC012
FM310600 02010KT 5SM BR VCSH OVC007
FM310900 01008KT 5SM BR VCSH OVC004

Example: see airport list